Time;durP1;ratioP1;P1;durP2;ratioP2;P2;SDS_P1;SDS_P2;PMS_P1;PMS_P2;Temp;Humidity;BMP_temperature;BMP_pressure;BME280_temperature;BME280_humidity;BME280_pressure;Samples;Min_cycle;Max_cycle;Signal;HPM_P1;HPM_P2
2022/09/25 00:00:56;;;;;;;;;;;;;;;11.41;100.00;96109.16;4898470;29;19969;-75
2022/09/25 00:03:24;;;;;;;;;;;;;;;11.38;100.00;96112.25;4897566;29;19966;-76
2022/09/25 00:05:50;;;;;;;;;;;;;;;11.29;100.00;96101.31;4886903;29;19961;-75
2022/09/25 00:08:17;;;;;;;;;;;;;;;11.25;100.00;96102.78;4897654;29;19973;-75
2022/09/25 00:10:48;;;;;;;;;;;;;;;11.24;100.00;96101.22;4898802;29;19957;-75
2022/09/25 00:13:15;;;;;;;;;;;;;;;11.17;100.00;96101.34;4897771;29;19957;-75
2022/09/25 00:15:48;;;;;;;;;;;;;;;11.14;100.00;96099.16;4894832;29;19961;-75
2022/09/25 00:18:15;;;;;;;;;;;;;;;11.14;100.00;96095.72;4895966;29;19961;-75
2022/09/25 00:20:40;;;;;;;;;;;;;;;11.14;100.00;96093.91;4898390;29;19970;-74
2022/09/25 00:23:07;;;;;;;;;;;;;;;11.16;100.00;96093.69;4897424;29;19956;-74
2022/09/25 00:25:33;;;;;;;;;;;;;;;11.13;100.00;96081.81;4896660;29;19983;-74
2022/09/25 00:27:59;;;;;;;;;;;;;;;11.14;100.00;96088.66;4896549;29;19962;-75
2022/09/25 00:30:25;;;;;;;;;;;;;;;11.13;100.00;96083.66;4898267;29;19984;-74
2022/09/25 00:32:51;;;;;;;;;;;;;;;11.11;100.00;96077.84;4896441;29;19968;-75
2022/09/25 00:35:17;;;;;;;;;;;;;;;11.10;100.00;96079.63;4898373;29;20326;-75
2022/09/25 00:37:43;;;;;;;;;;;;;;;11.11;100.00;96076.00;4896206;29;19964;-77
2022/09/25 00:40:09;;;;;;;;;;;;;;;11.11;100.00;96070.75;4894966;29;20334;-77
2022/09/25 00:42:36;;;;;;;;;;;;;;;11.11;100.00;96073.38;4886198;29;20349;-76
2022/09/25 00:45:06;;;;;;;;;;;;;;;11.13;100.00;96067.91;4893363;29;19971;-76
2022/09/25 00:47:31;;;;;;;;;;;;;;;11.13;100.00;96062.66;4900183;29;19960;-76
2022/09/25 00:49:59;;;;;;;;;;;;;;;11.14;100.00;96069.50;4902044;29;19966;-77
2022/09/25 00:52:25;;;;;;;;;;;;;;;11.14;100.00;96072.13;4900821;29;19962;-76
2022/09/25 00:54:54;;;;;;;;;;;;;;;11.15;100.00;96064.03;4902264;29;20343;-76
2022/09/25 00:57:25;;;;;;;;;;;;;;;11.14;100.00;96065.03;4900833;29;19955;-76
2022/09/25 00:59:54;;;;;;;;;;;;;;;11.14;100.00;96059.00;4901348;29;19972;-76
2022/09/25 01:02:23;;;;;;;;;;;;;;;11.11;100.00;96056.84;4899125;29;19965;-75
2022/09/25 01:04:50;;;;;;;;;;;;;;;11.09;100.00;96059.69;4901825;29;19970;-76
2022/09/25 01:07:16;;;;;;;;;;;;;;;11.08;100.00;96057.28;4899757;29;19962;-75
2022/09/25 01:09:43;;;;;;;;;;;;;;;11.08;100.00;96057.28;4901681;29;20327;-75
2022/09/25 01:12:09;;;;;;;;;;;;;;;11.07;100.00;96059.13;4899920;29;19964;-75
2022/09/25 01:14:35;;;;;;;;;;;;;;;11.04;100.00;96067.44;4900355;29;20383;-75
2022/09/25 01:17:06;;;;;;;;;;;;;;;10.97;100.00;96057.06;4900386;29;19968;-76
2022/09/25 01:19:44;;;;;;;;;;;;;;;10.96;100.00;96065.97;4902150;29;19957;-75
2022/09/25 01:22:36;;;;;;;;;;;;;;;10.99;100.00;96071.81;4894227;29;19961;-76
2022/09/25 01:25:23;;;;;;;;;;;;;;;10.99;100.00;96064.72;4886587;29;19977;-75
2022/09/25 01:27:54;;;;;;;;;;;;;;;11.01;100.00;96062.66;4891671;29;19969;-75
2022/09/25 01:30:20;;;;;;;;;;;;;;;11.06;100.00;96069.84;4896718;29;20301;-75
2022/09/25 01:32:55;;;;;;;;;;;;;;;11.03;100.00;96057.19;4900382;29;19967;-75
2022/09/25 01:35:24;;;;;;;;;;;;;;;10.93;100.00;96057.75;4893018;29;19956;-76
2022/09/25 01:37:58;;;;;;;;;;;;;;;10.87;100.00;96056.06;4893953;29;19963;-75
2022/09/25 01:40:24;;;;;;;;;;;;;;;10.84;100.00;96059.94;4891006;29;19969;-75
2022/09/25 01:42:52;;;;;;;;;;;;;;;10.81;100.00;96064.84;4900226;29;20390;-77
2022/09/25 01:45:31;;;;;;;;;;;;;;;10.81;100.00;96068.25;4899099;29;19978;-75
2022/09/25 01:48:00;;;;;;;;;;;;;;;10.83;100.00;96060.94;4900210;29;19964;-74
2022/09/25 01:50:33;;;;;;;;;;;;;;;10.86;100.00;96067.59;4900992;29;19956;-75
2022/09/25 01:53:00;;;;;;;;;;;;;;;10.87;100.00;96056.84;4899670;29;20011;-75
2022/09/25 01:55:34;;;;;;;;;;;;;;;10.87;100.00;96056.84;4899350;29;19958;-75
2022/09/25 01:58:10;;;;;;;;;;;;;;;10.88;100.00;96053.22;4900164;29;19957;-75
2022/09/25 02:00:42;;;;;;;;;;;;;;;10.88;100.00;96050.59;4899814;29;19973;-75
2022/09/25 02:03:12;;;;;;;;;;;;;;;10.87;100.00;96045.56;4899575;29;20454;-75
2022/09/25 02:05:45;;;;;;;;;;;;;;;10.85;100.00;96045.00;4899752;29;19975;-76
2022/09/25 02:08:14;;;;;;;;;;;;;;;10.84;100.00;96046.81;4899881;29;19965;-74
2022/09/25 02:10:46;;;;;;;;;;;;;;;10.84;100.00;96046.03;4899974;29;19956;-75
2022/09/25 02:13:14;;;;;;;;;;;;;;;10.84;100.00;96040.78;4899576;29;20434;-75
2022/09/25 02:15:46;;;;;;;;;;;;;;;10.85;100.00;96052.84;4899539;29;19975;-75
2022/09/25 02:20:58;;;;;;;;;;;;;;;10.83;100.00;96055.69;4899631;29;19961;-75
2022/09/25 02:23:31;;;;;;;;;;;;;;;10.84;100.00;96059.16;4900022;29;19958;-75
2022/09/25 02:26:19;;;;;;;;;;;;;;;10.83;100.00;96063.56;4899518;29;19971;-75
2022/09/25 02:28:45;;;;;;;;;;;;;;;10.83;100.00;96055.69;4899274;29;19964;-75
2022/09/25 02:31:12;;;;;;;;;;;;;;;10.83;100.00;96055.69;4898736;29;20452;-75
2022/09/25 02:33:38;;;;;;;;;;;;;;;10.82;100.00;96050.72;4900303;29;19957;-75
2022/09/25 02:36:05;;;;;;;;;;;;;;;10.83;100.00;96057.53;4899025;29;20034;-75
2022/09/25 02:38:32;;;;;;;;;;;;;;;10.82;100.00;96056.75;4899589;29;20410;-75
2022/09/25 02:41:01;;;;;;;;;;;;;;;10.82;100.00;96056.75;4898173;29;19950;-75
2022/09/25 02:43:42;;;;;;;;;;;;;;;10.83;100.00;96068.81;4900074;29;19966;-73
2022/09/25 02:46:25;;;;;;;;;;;;;;;10.88;100.00;96068.94;4899897;29;19982;-73
2022/09/25 02:49:02;;;;;;;;;;;;;;;10.92;100.00;96061.44;4898483;29;19965;-73
2022/09/25 02:51:36;;;;;;;;;;;;;;;10.93;100.00;96057.75;4899817;29;20417;-73
2022/09/25 02:54:07;;;;;;;;;;;;;;;10.91;100.00;96062.44;4898056;29;20417;-72
2022/09/25 02:56:43;;;;;;;;;;;;;;;10.89;100.00;96054.78;4898396;29;19959;-73
2022/09/25 02:59:17;;;;;;;;;;;;;;;10.82;100.00;96042.84;4898933;29;20358;-72
2022/09/25 03:01:45;;;;;;;;;;;;;;;10.80;100.00;96039.66;4898308;29;19963;-73
2022/09/25 03:04:12;;;;;;;;;;;;;;;10.78;100.00;96034.63;4897899;29;20348;-73
2022/09/25 03:06:39;;;;;;;;;;;;;;;10.77;100.00;96033.00;4898588;29;20430;-74
2022/09/25 03:09:07;;;;;;;;;;;;;;;10.78;100.00;96029.38;4897652;29;19969;-72
2022/09/25 03:11:38;;;;;;;;;;;;;;;10.78;100.00;96026.75;4899633;29;20317;-74
2022/09/25 03:14:04;;;;;;;;;;;;;;;10.80;100.00;96026.53;4898651;29;19949;-73
2022/09/25 03:16:30;;;;;;;;;;;;;;;10.80;100.00;96031.78;4899526;29;19969;-73
2022/09/25 03:18:56;;;;;;;;;;;;;;;10.80;100.00;96034.41;4898345;29;19961;-74
2022/09/25 03:21:22;;;;;;;;;;;;;;;10.80;100.00;96042.28;4899494;29;20014;-73
2022/09/25 03:23:48;;;;;;;;;;;;;;;10.79;100.00;96041.44;4897270;29;19965;-74
2022/09/25 03:26:14;;;;;;;;;;;;;;;10.80;100.00;96050.13;4899127;29;20333;-74
2022/09/25 03:28:40;;;;;;;;;;;;;;;10.78;100.00;96045.09;4898153;29;20017;-74
2022/09/25 03:31:09;;;;;;;;;;;;;;;10.77;100.00;96048.75;4898809;29;20448;-73
2022/09/25 03:33:40;;;;;;;;;;;;;;;10.77;100.00;96048.75;4896630;29;20487;-74
2022/09/25 03:36:11;;;;;;;;;;;;;;;10.79;100.00;96048.53;4899273;29;19962;-73
2022/09/25 03:38:37;;;;;;;;;;;;;;;10.79;100.00;96048.53;4894671;29;20329;-73
2022/09/25 03:41:07;;;;;;;;;;;;;;;10.77;100.00;96051.38;4898896;29;19983;-73
2022/09/25 03:43:35;;;;;;;;;;;;;;;10.70;100.00;96055.94;4897018;29;19958;-73
2022/09/25 03:46:02;;;;;;;;;;;;;;;10.62;100.00;96049.19;4897745;29;19982;-73
2022/09/25 03:48:29;;;;;;;;;;;;;;;10.60;100.00;96048.63;4898272;29;19965;-72
2022/09/25 03:50:55;;;;;;;;;;;;;;;10.58;100.00;96048.06;4897769;29;19958;-73
2022/09/25 03:53:21;;;;;;;;;;;;;;;10.54;100.00;96047.72;4898312;29;19960;-73
2022/09/25 03:55:47;;;;;;;;;;;;;;;10.49;100.00;96044.19;4896409;29;19964;-74
2022/09/25 03:58:15;;;;;;;;;;;;;;;10.50;100.00;96041.34;4897954;29;19966;-73
2022/09/25 04:00:41;;;;;;;;;;;;;;;10.54;100.00;96049.53;4898531;29;19969;-74
2022/09/25 04:03:07;;;;;;;;;;;;;;;10.56;100.00;96037.00;4891785;29;19982;-73
2022/09/25 04:05:33;;;;;;;;;;;;;;;10.60;100.00;96038.13;4897953;29;20341;-74
2022/09/25 04:08:00;;;;;;;;;;;;;;;10.62;100.00;96035.31;4892291;29;19965;-74
2022/09/25 04:10:26;;;;;;;;;;;;;;;10.66;100.00;96033.81;4898410;29;20326;-74
2022/09/25 04:12:54;;;;;;;;;;;;;;;10.67;100.00;96028.34;4897721;29;20429;-74
2022/09/25 04:15:23;;;;;;;;;;;;;;;10.71;100.00;96023.47;4897344;29;19973;-75
2022/09/25 04:17:49;;;;;;;;;;;;;;;10.76;100.00;96015.69;4897411;29;19958;-74
2022/09/25 04:20:15;;;;;;;;;;;;;;;10.77;100.00;96017.28;4898550;29;19955;-74
2022/09/25 04:22:41;;;;;;;;;;;;;;;10.78;100.00;96013.63;4896583;29;19962;-74
2022/09/25 04:25:08;;;;;;;;;;;;;;;10.78;100.00;96016.25;4897398;29;19981;-74
2022/09/25 04:27:35;;;;;;;;;;;;;;;10.80;100.00;96026.53;4896078;29;19964;-74
2022/09/25 04:30:02;;;;;;;;;;;;;;;10.77;100.00;96031.22;4897723;29;19963;-74
2022/09/25 04:35:13;;;;;;;;;;;;;;;10.78;100.00;96034.63;4892776;29;19979;-74
2022/09/25 04:37:39;;;;;;;;;;;;;;;10.77;100.00;96039.06;4896267;29;19957;-75
2022/09/25 04:40:05;;;;;;;;;;;;;;;10.75;100.00;96029.81;4898909;29;19957;-74
2022/09/25 04:42:31;;;;;;;;;;;;;;;10.75;100.00;96032.44;4895408;29;19975;-74
2022/09/25 04:44:57;;;;;;;;;;;;;;;10.73;100.00;96037.13;4898136;29;19980;-75
2022/09/25 04:47:24;;;;;;;;;;;;;;;10.70;100.00;96035.75;4898092;29;19957;-74
2022/09/25 04:49:51;;;;;;;;;;;;;;;10.70;100.00;96043.63;4898391;29;19964;-74
2022/09/25 04:52:17;;;;;;;;;;;;;;;10.70;100.00;96051.50;4896409;29;19965;-74
2022/09/25 04:54:43;;;;;;;;;;;;;;;10.70;100.00;96050.69;4897927;29;19962;-74
2022/09/25 04:57:13;;;;;;;;;;;;;;;10.70;100.00;96050.69;4897166;29;19965;-74
2022/09/25 04:59:39;;;;;;;;;;;;;;;10.68;100.00;96045.66;4898325;29;19954;-74
2022/09/25 05:02:05;;;;;;;;;;;;;;;10.63;100.00;96045.56;4895412;29;19975;-75
2022/09/25 05:04:31;;;;;;;;;;;;;;;10.60;100.00;96053.88;4898108;29;19958;-74
2022/09/25 05:06:57;;;;;;;;;;;;;;;10.58;100.00;96061.16;4897007;29;19963;-74
2022/09/25 05:09:23;;;;;;;;;;;;;;;10.57;100.00;96056.97;4897570;29;20007;-74
2022/09/25 05:11:49;;;;;;;;;;;;;;;10.56;100.00;96060.59;4896984;29;20044;-75
2022/09/25 05:14:15;;;;;;;;;;;;;;;10.52;100.00;96057.66;4898116;29;20370;-74
2022/09/25 05:16:41;;;;;;;;;;;;;;;10.52;100.00;96059.44;4896125;29;19967;-75
2022/09/25 05:19:07;;;;;;;;;;;;;;;10.54;100.00;96063.47;4897233;29;20409;-74
2022/09/25 05:21:33;;;;;;;;;;;;;;;10.55;100.00;96062.44;4896266;29;19975;-75
2022/09/25 05:23:59;;;;;;;;;;;;;;;10.57;100.00;96065.63;4897895;29;19955;-74
2022/09/25 05:26:27;;;;;;;;;;;;;;;10.57;100.00;96063.00;4896904;29;19978;-74
2022/09/25 05:28:53;;;;;;;;;;;;;;;10.60;100.00;96066.19;4900375;29;19974;-74
2022/09/25 05:31:19;;;;;;;;;;;;;;;10.61;100.00;96060.72;4899912;29;20019;-74
2022/09/25 05:33:45;;;;;;;;;;;;;;;10.62;100.00;96064.94;4901820;29;19958;-74
2022/09/25 05:36:11;;;;;;;;;;;;;;;10.63;100.00;96060.50;4900504;29;19952;-74
2022/09/25 05:38:38;;;;;;;;;;;;;;;10.64;100.00;96060.25;4900041;29;20418;-74
2022/09/25 05:41:04;;;;;;;;;;;;;;;10.61;100.00;96059.94;4901328;29;19957;-74
2022/09/25 05:43:31;;;;;;;;;;;;;;;10.61;100.00;96059.94;4900083;29;20065;-75
2022/09/25 05:45:57;;;;;;;;;;;;;;;10.61;100.00;96057.31;4894798;29;19996;-75
2022/09/25 05:48:23;;;;;;;;;;;;;;;10.60;100.00;96060.94;4889433;29;19954;-75
2022/09/25 05:50:50;;;;;;;;;;;;;;;10.52;100.00;96060.28;4901190;29;20022;-75
2022/09/25 05:53:15;;;;;;;;;;;;;;;10.47;100.00;96059.34;4900339;29;19955;-74
2022/09/25 05:55:48;;;;;;;;;;;;;;;10.46;100.00;96063.00;4883269;29;20001;-75
2022/09/25 05:58:13;;;;;;;;;;;;;;;10.49;100.00;96057.28;4895228;29;19952;-74
2022/09/25 06:00:39;;;;;;;;;;;;;;;10.51;100.00;96063.91;4900003;29;19974;-75
2022/09/25 06:03:05;;;;;;;;;;;;;;;10.52;100.00;96070.75;4899809;29;20606;-75
2022/09/25 06:05:31;;;;;;;;;;;;;;;10.55;100.00;96064.25;4899688;29;20012;-75
2022/09/25 06:07:57;;;;;;;;;;;;;;;10.58;100.00;96061.16;4899885;29;20423;-75
2022/09/25 06:10:25;;;;;;;;;;;;;;;10.61;100.00;96060.72;4899829;29;20338;-74
2022/09/25 06:12:56;;;;;;;;;;;;;;;10.65;100.00;96072.38;4900840;29;19963;-75
2022/09/25 06:15:22;;;;;;;;;;;;;;;10.64;100.00;96062.88;4899228;29;19971;-74
2022/09/25 06:17:49;;;;;;;;;;;;;;;10.62;100.00;96059.69;4897310;29;20057;-75
2022/09/25 06:20:14;;;;;;;;;;;;;;;10.62;100.00;96064.16;4900381;29;19978;-75
2022/09/25 06:22:40;;;;;;;;;;;;;;;10.60;100.00;96061.75;4899566;29;20453;-74
2022/09/25 06:25:06;;;;;;;;;;;;;;;10.60;100.00;96063.56;4900413;29;19982;-74
2022/09/25 06:27:32;;;;;;;;;;;;;;;10.62;100.00;96064.16;4898568;29;19965;-75
2022/09/25 06:29:58;;;;;;;;;;;;;;;10.67;100.00;96069.53;4899935;29;19981;-75
2022/09/25 06:32:24;;;;;;;;;;;;;;;10.69;100.00;96067.47;4899064;29;20007;-75
2022/09/25 06:34:50;;;;;;;;;;;;;;;10.69;100.00;96073.50;4900239;29;20057;-74
2022/09/25 06:37:16;;;;;;;;;;;;;;;10.64;100.00;96064.72;4898965;29;20378;-75
2022/09/25 06:39:42;;;;;;;;;;;;;;;10.59;100.00;96068.03;4899246;29;19978;-74
2022/09/25 06:42:07;;;;;;;;;;;;;;;10.54;100.00;96075.75;4899153;29;20495;-75
2022/09/25 06:44:33;;;;;;;;;;;;;;;10.54;100.00;96066.09;4899451;29;20331;-75
2022/09/25 06:47:00;;;;;;;;;;;;;;;10.57;100.00;96077.94;4898876;29;20017;-75
2022/09/25 06:49:26;;;;;;;;;;;;;;;10.56;100.00;96073.72;4899056;29;19973;-75
2022/09/25 06:51:53;;;;;;;;;;;;;;;10.56;100.00;96078.94;4898756;29;19960;-75
2022/09/25 06:54:19;;;;;;;;;;;;;;;10.57;100.00;96075.31;4898952;29;19973;-75
2022/09/25 06:56:48;;;;;;;;;;;;;;;10.59;100.00;96081.13;4898052;29;19960;-75
2022/09/25 06:59:14;;;;;;;;;;;;;;;10.62;100.00;96078.03;4899150;29;20422;-75
2022/09/25 07:01:40;;;;;;;;;;;;;;;10.61;100.00;96076.47;4899144;29;19969;-75
2022/09/25 07:04:06;;;;;;;;;;;;;;;10.59;100.00;96078.50;4899604;29;19966;-75
2022/09/25 07:06:33;;;;;;;;;;;;;;;10.60;100.00;96081.94;4898594;29;20053;-74
2022/09/25 07:09:00;;;;;;;;;;;;;;;10.61;100.00;96075.66;4898862;29;19967;-75
2022/09/25 07:11:26;;;;;;;;;;;;;;;10.63;100.00;96076.25;4898376;29;19954;-75
2022/09/25 07:13:55;;;;;;;;;;;;;;;10.67;100.00;96078.19;4898503;29;19965;-75
2022/09/25 07:16:22;;;;;;;;;;;;;;;10.72;100.00;96080.13;4898430;29;19959;-75
2022/09/25 07:18:49;;;;;;;;;;;;;;;10.76;100.00;96079.44;4898236;29;19966;-75
2022/09/25 07:21:16;;;;;;;;;;;;;;;10.82;100.00;96076.94;4899024;29;19963;-75
2022/09/25 07:23:42;;;;;;;;;;;;;;;10.85;100.00;96084.34;4898390;29;20275;-75
2022/09/25 07:26:10;;;;;;;;;;;;;;;10.88;100.00;96078.66;4898085;29;20450;-75
2022/09/25 07:28:36;;;;;;;;;;;;;;;10.91;100.00;96086.03;4897744;29;20423;-75
2022/09/25 07:31:13;;;;;;;;;;;;;;;10.92;100.00;96088.44;4898938;29;19990;-75
2022/09/25 07:33:39;;;;;;;;;;;;;;;10.92;100.00;96088.44;4890790;29;20340;-75
2022/09/25 07:36:05;;;;;;;;;;;;;;;10.89;100.00;96078.41;4897955;29;19952;-75
2022/09/25 07:38:33;;;;;;;;;;;;;;;10.82;100.00;96080.34;4899117;29;20320;-75
2022/09/25 07:40:59;;;;;;;;;;;;;;;10.76;100.00;96079.44;4897128;29;20336;-76
2022/09/25 07:43:25;;;;;;;;;;;;;;;10.75;100.00;96084.88;4896435;29;20326;-75
2022/09/25 07:45:52;;;;;;;;;;;;;;;10.77;100.00;96086.28;4897892;29;19969;-75
2022/09/25 07:48:20;;;;;;;;;;;;;;;10.77;100.00;96082.84;4897710;29;19969;-75
2022/09/25 07:50:48;;;;;;;;;;;;;;;10.75;100.00;96087.50;4898497;29;19964;-75
2022/09/25 07:53:14;;;;;;;;;;;;;;;10.74;100.00;96083.31;4897916;29;19964;-76
2022/09/25 07:55:40;;;;;;;;;;;;;;;10.75;100.00;96090.97;4897537;29;20419;-75
2022/09/25 07:58:06;;;;;;;;;;;;;;;10.80;100.00;96089.47;4898915;29;19969;-75
2022/09/25 08:00:31;;;;;;;;;;;;;;;10.85;100.00;96085.13;4896769;29;19967;-74
2022/09/25 08:02:58;;;;;;;;;;;;;;;10.87;100.00;96082.28;4898002;29;20346;-76
2022/09/25 08:05:25;;;;;;;;;;;;;;;10.90;100.00;96081.84;4896860;29;20328;-75
2022/09/25 08:07:54;;;;;;;;;;;;;;;10.88;100.00;96082.06;4893879;29;20419;-76
2022/09/25 08:10:20;;;;;;;;;;;;;;;10.91;100.00;96086.84;4898604;29;19953;-74
2022/09/25 08:12:46;;;;;;;;;;;;;;;10.91;100.00;96086.03;4897649;29;19961;-75
2022/09/25 08:15:15;;;;;;;;;;;;;;;10.89;100.00;96088.91;4896619;29;19973;-75
2022/09/25 08:17:41;;;;;;;;;;;;;;;10.87;100.00;96088.31;4886044;29;20007;-75
2022/09/25 08:20:08;;;;;;;;;;;;;;;10.86;100.00;96088.56;4893581;29;19962;-75
2022/09/25 08:22:34;;;;;;;;;;;;;;;10.89;100.00;96081.03;4894855;29;19976;-75
2022/09/25 08:25:01;;;;;;;;;;;;;;;10.95;100.00;96079.31;4896341;29;19956;-76
2022/09/25 08:27:30;;;;;;;;;;;;;;;10.97;100.00;96078.06;4894504;29;19969;-75
2022/09/25 08:29:57;;;;;;;;;;;;;;;10.99;100.00;96082.28;4897218;29;19973;-75
2022/09/25 08:32:23;;;;;;;;;;;;;;;11.03;100.00;96089.47;4898311;29;20375;-74
2022/09/25 08:34:48;;;;;;;;;;;;;;;11.07;100.00;96089.81;4898433;29;20068;-75
2022/09/25 08:37:15;;;;;;;;;;;;;;;11.13;100.00;96083.66;4894186;29;20067;-75
2022/09/25 08:39:41;;;;;;;;;;;;;;;11.22;100.00;96084.09;4897420;29;19963;-75
2022/09/25 08:42:16;;;;;;;;;;;;;;;11.29;100.00;96076.88;4892825;29;20421;-75
2022/09/25 08:44:44;;;;;;;;;;;;;;;11.35;100.00;96074.13;4898328;29;19957;-74
2022/09/25 08:50:10;;;;;;;;;;;;;;;11.47;100.00;96071.50;4882080;29;19962;-76
2022/09/25 08:52:38;;;;;;;;;;;;;;;11.53;100.00;96073.19;4894796;29;19966;-76
2022/09/25 08:55:12;;;;;;;;;;;;;;;11.54;100.00;96077.38;4896670;29;19960;-75
2022/09/25 08:57:42;;;;;;;;;;;;;;;11.51;100.00;96079.72;4894573;29;19970;-75
2022/09/25 09:00:12;;;;;;;;;;;;;;;11.45;100.00;96075.38;4890617;29;19980;-75
2022/09/25 09:02:44;;;;;;;;;;;;;;;11.44;100.00;96073.78;4898008;29;19960;-74
2022/09/25 09:05:30;;;;;;;;;;;;;;;11.44;100.00;96074.56;4902015;29;19953;-75
2022/09/25 09:08:08;;;;;;;;;;;;;;;11.48;100.00;96069.66;4895715;29;19968;-75
2022/09/25 09:10:48;;;;;;;;;;;;;;;11.53;100.00;96070.56;4898678;29;19970;-77
2022/09/25 09:13:20;;;;;;;;;;;;;;;11.57;100.00;96066.44;4896989;29;19989;-75
2022/09/25 09:15:50;;;;;;;;;;;;;;;11.56;100.00;96056.94;4899827;29;19961;-76
2022/09/25 09:18:24;;;;;;;;;;;;;;;11.57;100.00;96068.28;4899096;29;20317;-75
2022/09/25 09:20:55;;;;;;;;;;;;;;;11.63;100.00;96067.31;4898011;29;19956;-75
2022/09/25 09:23:22;;;;;;;;;;;;;;;11.73;100.00;96057.00;4898063;29;19969;-76
2022/09/25 09:25:57;;;;;;;;;;;;;;;11.80;100.00;96062.16;4891827;29;19977;-75
2022/09/25 09:28:41;;;;;;;;;;;;;;;11.81;100.00;96061.09;4897092;29;19966;-75
2022/09/25 09:31:14;;;;;;;;;;;;;;;11.80;100.00;96062.16;4894686;29;19997;-75
2022/09/25 09:34:00;;;;;;;;;;;;;;;11.84;100.00;96057.97;4900232;29;19981;-75
2022/09/25 09:36:36;;;;;;;;;;;;;;;11.93;100.00;96058.47;4877826;29;19956;-76
2022/09/25 09:39:18;;;;;;;;;;;;;;;11.97;100.00;96052.50;4899857;29;19954;-75
2022/09/25 09:41:43;;;;;;;;;;;;;;;12.01;100.00;96060.72;4888402;29;20430;-75
2022/09/25 09:44:36;;;;;;;;;;;;;;;12.05;100.00;96059.19;4901299;29;20025;-74
2022/09/25 09:47:02;;;;;;;;;;;;;;;12.12;100.00;96056.44;4891370;29;19988;-75
2022/09/25 09:49:32;;;;;;;;;;;;;;;12.16;100.00;96062.81;4899673;29;19966;-75
2022/09/25 09:52:01;;;;;;;;;;;;;;;12.19;100.00;96065.75;4897326;29;19964;-74
2022/09/25 09:54:34;;;;;;;;;;;;;;;12.26;100.00;96060.31;4901035;29;20326;-75
2022/09/25 09:57:03;;;;;;;;;;;;;;;12.34;100.00;96056.50;4898192;29;19964;-75
2022/09/25 09:59:38;;;;;;;;;;;;;;;12.34;100.00;96056.50;4897548;29;19964;-75
2022/09/25 10:02:23;;;;;;;;;;;;;;;12.36;100.00;96057.06;4898076;29;19965;-76
2022/09/25 10:04:50;;;;;;;;;;;;;;;12.38;100.00;96052.38;4899117;29;20427;-76
2022/09/25 10:07:21;;;;;;;;;;;;;;;12.44;100.00;96059.31;4899681;29;19978;-75
2022/09/25 10:09:51;;;;;;;;;;;;;;;12.49;100.00;96054.13;4894945;29;19953;-75
2022/09/25 10:12:30;;;;;;;;;;;;;;;12.52;100.00;96053.66;4899312;29;19960;-75
2022/09/25 10:14:57;;;;;;;;;;;;;;;12.52;100.00;96050.22;4899093;29;20421;-76
2022/09/25 10:17:23;;;;;;;;;;;;;;;12.57;100.00;96055.56;4899287;29;19982;-76
2022/09/25 10:19:54;;;;;;;;;;;;;;;12.62;100.00;96058.28;4897987;29;19961;-76
2022/09/25 10:22:22;;;;;;;;;;;;;;;12.68;100.00;96053.88;4898266;29;19961;-75
2022/09/25 10:24:54;;;;;;;;;;;;;;;12.71;100.00;96051.56;4899481;29;19966;-76
2022/09/25 10:27:19;;;;;;;;;;;;;;;12.79;100.00;96058.28;4899955;29;19967;-76
2022/09/25 10:29:45;;;;;;;;;;;;;;;12.84;100.00;96055.69;4898633;29;19971;-75
2022/09/25 10:32:12;;;;;;;;;;;;;;;12.84;100.00;96050.44;4898783;29;20072;-75
2022/09/25 10:34:40;;;;;;;;;;;;;;;12.85;100.00;96052.03;4899115;29;20160;-75
2022/09/25 10:37:18;;;;;;;;;;;;;;;12.88;100.00;96063.91;4900319;29;19960;-75
2022/09/25 10:39:58;;;;;;;;;;;;;;;12.91;100.00;96060.78;4893426;29;19960;-75
2022/09/25 10:42:33;;;;;;;;;;;;;;;12.92;100.00;96049.25;4900246;29;19962;-75
2022/09/25 10:45:14;;;;;;;;;;;;;;;12.96;100.00;96058.25;4898920;29;19953;-75
2022/09/25 10:50:26;;;;;;;;;;;;;;;13.02;100.00;96057.28;4896767;29;19961;-75
2022/09/25 10:52:57;;;;;;;;;;;;;;;13.01;100.00;96058.31;4897944;29;20098;-75
2022/09/25 10:55:31;;;;;;;;;;;;;;;13.04;100.00;96054.38;4892789;29;19957;-76
2022/09/25 10:57:57;;;;;;;;;;;;;;;13.07;100.00;96059.97;4897783;29;19973;-76
2022/09/25 11:00:24;;;;;;;;;;;;;;;13.08;100.00;96052.84;4899557;29;19981;-76
2022/09/25 11:02:52;;;;;;;;;;;;;;;13.12;100.00;96056.59;4899645;29;19961;-76
2022/09/25 11:05:37;;;;;;;;;;;;;;;13.19;100.00;96057.25;4899847;29;19961;-76
2022/09/25 11:08:05;;;;;;;;;;;;;;;13.26;100.00;96054.41;4887050;29;19959;-76
2022/09/25 11:10:35;;;;;;;;;;;;;;;13.35;100.00;96056.41;4898691;29;19951;-76
2022/09/25 11:13:06;;;;;;;;;;;;;;;13.42;100.00;96056.25;4898517;29;20314;-76
2022/09/25 11:15:33;;;;;;;;;;;;;;;13.50;100.00;96055.00;4899452;29;19963;-77
2022/09/25 11:17:59;;;;;;;;;;;;;;;13.57;100.00;96063.53;4899065;29;19962;-77
2022/09/25 11:20:30;;;;;;;;;;;;;;;13.65;100.00;96062.28;4895592;29;19956;-77
2022/09/25 11:23:13;;;;;;;;;;;;;;;13.76;99.17;96056.09;4899390;29;19958;-77
2022/09/25 11:25:39;;;;;;;;;;;;;;;13.93;98.20;96061.28;4898568;29;19953;-76
2022/09/25 11:28:12;;;;;;;;;;;;;;;14.08;100.00;96060.63;4898376;29;19956;-75
2022/09/25 11:30:50;;;;;;;;;;;;;;;14.14;100.00;96052.50;4898508;29;20011;-76
2022/09/25 11:33:34;;;;;;;;;;;;;;;14.12;94.70;96046.69;4898522;29;19963;-76
2022/09/25 11:36:03;;;;;;;;;;;;;;;14.05;93.27;96045.28;4898485;29;19976;-76
2022/09/25 11:41:47;;;;;;;;;;;;;;;13.88;95.84;96048.03;4898901;29;19955;-76
2022/09/25 11:44:31;;;;;;;;;;;;;;;13.87;96.78;96041.19;4897274;29;19961;-76
2022/09/25 11:47:09;;;;;;;;;;;;;;;13.88;94.66;96035.66;4899101;29;19978;-76
2022/09/25 11:49:37;;;;;;;;;;;;;;;13.90;97.16;96048.56;4898524;29;20327;-78
2022/09/25 11:52:06;;;;;;;;;;;;;;;13.88;95.59;96035.66;4894153;29;19958;-76
2022/09/25 11:54:42;;;;;;;;;;;;;;;13.87;98.77;96046.44;4890345;29;19965;-75
2022/09/25 11:57:27;;;;;;;;;;;;;;;13.84;97.63;96047.75;4898614;29;19997;-76
2022/09/25 12:00:16;;;;;;;;;;;;;;;13.83;99.68;96046.13;4898521;29;19955;-75
2022/09/25 12:03:06;;;;;;;;;;;;;;;13.79;99.95;96047.69;4891212;29;20342;-75
2022/09/25 12:05:38;;;;;;;;;;;;;;;13.71;99.08;96053.38;4898780;29;20414;-74
2022/09/25 12:08:08;;;;;;;;;;;;;;;13.59;99.05;96053.53;4898697;29;19983;-73
2022/09/25 12:10:43;;;;;;;;;;;;;;;13.49;98.79;96053.41;4898673;29;19984;-73
2022/09/25 12:13:15;;;;;;;;;;;;;;;13.39;100.00;96054.06;4887625;29;20031;-73
2022/09/25 12:16:06;;;;;;;;;;;;;;;13.30;100.00;96052.94;4898444;29;19953;-73
2022/09/25 12:18:42;;;;;;;;;;;;;;;13.24;100.00;96049.38;4890054;29;19952;-73
2022/09/25 12:21:15;;;;;;;;;;;;;;;13.19;100.00;96042.22;4898799;29;20397;-74
2022/09/25 12:23:47;;;;;;;;;;;;;;;13.15;100.00;96035.84;4898599;29;19954;-73
2022/09/25 12:26:34;;;;;;;;;;;;;;;13.16;100.00;96032.16;4898603;29;19972;-73
2022/09/25 12:29:03;;;;;;;;;;;;;;;13.25;100.00;96035.19;4899093;29;19949;-73
2022/09/25 12:31:48;;;;;;;;;;;;;;;13.35;100.00;96035.31;4898647;29;19981;-73
2022/09/25 12:34:25;;;;;;;;;;;;;;;13.46;100.00;96011.75;4889470;29;20326;-73
2022/09/25 12:36:56;;;;;;;;;;;;;;;13.54;100.00;96017.41;4888948;29;19951;-73
2022/09/25 12:39:30;;;;;;;;;;;;;;;13.66;100.00;96016.44;4902535;29;19961;-73
2022/09/25 12:42:06;;;;;;;;;;;;;;;13.79;100.00;96011.56;4902435;29;19962;-73
2022/09/25 12:44:32;;;;;;;;;;;;;;;13.95;98.39;96017.00;4901598;29;19959;-73
2022/09/25 12:47:01;;;;;;;;;;;;;;;14.06;100.00;96016.03;4902680;29;19974;-73
2022/09/25 12:49:46;;;;;;;;;;;;;;;14.14;100.00;96002.41;4901882;29;19957;-73
2022/09/25 12:52:20;;;;;;;;;;;;;;;14.22;99.95;96006.44;4893366;29;19950;-73
2022/09/25 12:54:46;;;;;;;;;;;;;;;14.31;100.00;96009.41;4902222;29;19956;-74
2022/09/25 12:57:12;;;;;;;;;;;;;;;14.35;100.00;96005.22;4902200;29;19954;-74
2022/09/25 12:59:45;;;;;;;;;;;;;;;14.36;99.57;96012.88;4902117;29;19950;-74
2022/09/25 13:02:47;;;;;;;;;;;;;;;14.36;95.79;96009.44;4902377;29;19953;-74
2022/09/25 13:05:16;;;;;;;;;;;;;;;14.38;98.49;96015.25;4844142;29;19965;-74